createdAt,value
2023-05-14T00:01:33.244Z,9.50
2023-05-14T00:04:00.716Z,9.60
2023-05-14T00:06:28.384Z,9.50
2023-05-14T00:08:55.450Z,9.50
2023-05-14T00:11:22.490Z,9.50
2023-05-14T00:13:50.651Z,9.50
2023-05-14T00:16:17.740Z,9.50
2023-05-14T00:18:44.820Z,9.50
2023-05-14T00:21:11.921Z,9.40
2023-05-14T00:23:39.000Z,9.40
2023-05-14T00:26:06.204Z,9.40
2023-05-14T00:28:33.272Z,9.50
2023-05-14T00:31:00.620Z,9.50
2023-05-14T00:33:27.729Z,9.50
2023-05-14T00:35:54.809Z,9.40
2023-05-14T00:38:21.809Z,9.40
2023-05-14T00:40:52.143Z,9.50
2023-05-14T00:43:22.875Z,9.50
2023-05-14T00:45:51.871Z,9.50
2023-05-14T00:48:21.023Z,9.60
2023-05-14T00:50:50.918Z,9.60
2023-05-14T00:53:19.677Z,9.60
2023-05-14T00:55:48.881Z,9.60
2023-05-14T00:58:16.164Z,9.60
2023-05-14T01:00:43.313Z,9.60
2023-05-14T01:03:10.584Z,9.50
2023-05-14T01:05:52.941Z,9.50
2023-05-14T01:08:35.610Z,9.60
2023-05-14T01:11:50.910Z,9.70
2023-05-14T01:14:23.169Z,9.70
2023-05-14T01:16:53.118Z,9.70
2023-05-14T01:19:39.706Z,9.70
2023-05-14T01:22:07.027Z,9.60
2023-05-14T01:24:34.165Z,9.60
2023-05-14T01:27:26.742Z,9.50
2023-05-14T01:30:03.789Z,9.50
2023-05-14T01:32:32.932Z,9.40
2023-05-14T01:35:01.577Z,9.30
2023-05-14T01:37:31.286Z,9.30
2023-05-14T01:39:59.141Z,9.30
2023-05-14T01:42:27.225Z,9.30
2023-05-14T01:44:54.561Z,9.30
2023-05-14T01:47:21.764Z,9.40
2023-05-14T01:49:48.771Z,9.30
2023-05-14T01:52:15.854Z,9.30
2023-05-14T01:54:42.947Z,9.30
2023-05-14T01:57:10.051Z,9.20
2023-05-14T01:59:37.104Z,9.10
2023-05-14T02:02:04.236Z,9.10
2023-05-14T02:04:31.258Z,9.00
2023-05-14T02:06:58.317Z,9.00
2023-05-14T02:09:25.444Z,8.90
2023-05-14T02:11:52.510Z,8.70
2023-05-14T02:14:19.520Z,8.50
2023-05-14T02:16:46.621Z,8.40
2023-05-14T02:19:13.795Z,8.30
2023-05-14T02:21:40.896Z,8.20
2023-05-14T02:24:08.133Z,8.30
2023-05-14T02:26:35.589Z,8.30
2023-05-14T02:29:02.612Z,8.20
2023-05-14T02:31:29.762Z,8.10
2023-05-14T02:33:57.078Z,8.00
2023-05-14T02:36:24.068Z,7.90
2023-05-14T02:38:51.225Z,7.80
2023-05-14T02:41:18.259Z,7.80
2023-05-14T02:43:45.443Z,7.70
2023-05-14T02:46:12.498Z,7.70
2023-05-14T02:48:39.581Z,7.80
2023-05-14T02:51:06.715Z,7.70
2023-05-14T02:53:33.896Z,7.60
2023-05-14T02:56:01.039Z,7.60
2023-05-14T02:58:28.470Z,7.60
2023-05-14T03:00:55.918Z,7.60
2023-05-14T03:03:23.613Z,7.70
2023-05-14T03:05:51.040Z,7.60
2023-05-14T03:08:18.169Z,7.60
2023-05-14T03:10:45.156Z,7.70
2023-05-14T03:13:12.253Z,7.70
2023-05-14T03:15:39.268Z,7.80
2023-05-14T03:18:06.922Z,7.90
2023-05-14T03:20:33.992Z,7.90
2023-05-14T03:23:01.172Z,7.90
2023-05-14T03:25:28.257Z,7.90
2023-05-14T03:27:55.416Z,7.90
2023-05-14T03:30:22.594Z,7.90
2023-05-14T03:32:50.905Z,8.00
2023-05-14T03:35:18.216Z,7.90
2023-05-14T03:37:45.370Z,7.90
2023-05-14T03:40:12.803Z,7.80
2023-05-14T03:42:39.831Z,7.80
2023-05-14T03:45:07.634Z,7.70
2023-05-14T03:47:34.731Z,7.50
2023-05-14T03:50:01.853Z,7.50
2023-05-14T03:52:28.943Z,7.50
2023-05-14T03:54:55.990Z,7.50
2023-05-14T03:57:22.973Z,7.70
2023-05-14T03:59:50.029Z,7.70
2023-05-14T04:02:17.154Z,7.70
2023-05-14T04:04:44.247Z,7.70
2023-05-14T04:07:11.357Z,7.60
2023-05-14T04:09:38.553Z,7.80
2023-05-14T04:12:06.231Z,7.90
2023-05-14T04:14:33.263Z,8.10
2023-05-14T04:17:00.657Z,8.40
2023-05-14T04:19:27.704Z,8.60
2023-05-14T04:21:54.748Z,8.90
2023-05-14T04:24:21.849Z,9.20
2023-05-14T04:26:48.842Z,9.50
2023-05-14T04:29:15.912Z,9.80
2023-05-14T04:31:43.401Z,9.90
2023-05-14T04:34:10.530Z,10.20
2023-05-14T04:36:37.598Z,10.40
2023-05-14T04:39:04.667Z,10.70
2023-05-14T04:41:31.701Z,10.90
2023-05-14T04:44:00.750Z,11.20
2023-05-14T04:46:28.355Z,11.40
2023-05-14T04:48:56.625Z,11.50
2023-05-14T04:51:23.961Z,11.70
2023-05-14T04:53:51.031Z,11.80
2023-05-14T04:56:18.119Z,12.00
2023-05-14T04:58:45.149Z,12.20
2023-05-14T05:01:12.435Z,12.50
2023-05-14T05:03:39.571Z,12.80
2023-05-14T05:06:07.066Z,13.00
2023-05-14T05:08:34.193Z,13.10
2023-05-14T05:11:01.201Z,13.40
2023-05-14T05:13:28.356Z,13.60
2023-05-14T05:15:55.482Z,14.10
2023-05-14T05:18:22.619Z,14.70
2023-05-14T05:20:49.758Z,15.10
2023-05-14T05:23:16.869Z,15.10
2023-05-14T05:25:43.963Z,15.50
2023-05-14T05:28:11.031Z,15.60
2023-05-14T05:30:38.087Z,15.80
2023-05-14T05:33:05.229Z,16.00
2023-05-14T05:35:32.359Z,15.90
2023-05-14T05:38:01.369Z,15.90
2023-05-14T05:40:29.002Z,15.90
2023-05-14T05:42:56.175Z,16.00
2023-05-14T05:45:23.316Z,16.20
2023-05-14T05:47:50.536Z,16.80
2023-05-14T05:50:18.960Z,17.30
2023-05-14T05:52:47.193Z,17.70
2023-05-14T05:55:14.238Z,18.00
2023-05-14T05:57:41.223Z,18.10
2023-05-14T06:00:15.311Z,18.20
2023-05-14T06:02:43.071Z,18.40
2023-05-14T06:05:11.135Z,18.70
2023-05-14T06:07:38.973Z,19.10
2023-05-14T06:10:06.973Z,19.00
2023-05-14T06:12:34.019Z,19.00
2023-05-14T06:15:01.187Z,18.80
2023-05-14T06:17:28.270Z,18.50
2023-05-14T06:19:55.358Z,18.00
2023-05-14T06:22:22.470Z,17.80
2023-05-14T06:24:49.552Z,17.90
2023-05-14T06:27:16.621Z,18.10
2023-05-14T06:29:43.624Z,18.50
2023-05-14T06:32:10.766Z,19.10
2023-05-14T06:34:37.851Z,19.90
2023-05-14T06:37:05.707Z,19.80
2023-05-14T06:39:32.903Z,19.40
2023-05-14T06:41:59.962Z,19.20
2023-05-14T06:44:27.329Z,19.30
2023-05-14T06:46:54.470Z,19.00
2023-05-14T06:49:21.618Z,18.40
2023-05-14T06:51:48.625Z,18.30
2023-05-14T06:54:15.742Z,18.50
2023-05-14T06:56:43.184Z,18.50
2023-05-14T06:59:10.301Z,18.50
2023-05-14T07:01:37.497Z,18.50
2023-05-14T07:04:04.812Z,18.70
2023-05-14T07:06:32.729Z,19.30
2023-05-14T07:09:01.389Z,20.00
2023-05-14T07:11:28.430Z,20.20
2023-05-14T07:13:55.442Z,20.20
2023-05-14T07:16:22.629Z,20.50
2023-05-14T07:18:49.758Z,21.10
2023-05-14T07:21:16.832Z,21.70
2023-05-14T07:23:43.934Z,21.60
2023-05-14T07:26:10.992Z,21.40
2023-05-14T07:28:38.102Z,20.90
2023-05-14T07:31:09.010Z,21.30
2023-05-14T07:33:36.840Z,21.60
2023-05-14T07:36:04.127Z,21.60
2023-05-14T07:38:31.661Z,21.20
2023-05-14T07:40:58.734Z,21.50
2023-05-14T07:43:26.051Z,20.70
2023-05-14T07:45:53.087Z,20.10
2023-05-14T07:48:20.330Z,19.50
2023-05-14T07:50:49.049Z,19.40
2023-05-14T07:53:16.209Z,19.10
2023-05-14T07:55:45.482Z,18.80
2023-05-14T07:58:12.540Z,18.70
2023-05-14T08:00:39.598Z,19.00
2023-05-14T08:03:06.866Z,19.20
2023-05-14T08:05:34.097Z,18.90
2023-05-14T08:08:01.637Z,18.90
2023-05-14T08:10:29.152Z,19.00
2023-05-14T08:12:56.353Z,18.80
2023-05-14T08:15:25.191Z,18.70
2023-05-14T08:17:54.311Z,18.90
2023-05-14T08:20:21.498Z,18.60
2023-05-14T08:22:48.656Z,18.60
2023-05-14T08:25:15.802Z,18.50
2023-05-14T08:27:42.874Z,18.50
2023-05-14T08:30:10.304Z,18.30
2023-05-14T08:32:38.759Z,18.30
2023-05-14T08:35:06.971Z,18.40
2023-05-14T08:37:34.086Z,18.10
2023-05-14T08:40:01.148Z,18.30
2023-05-14T08:42:29.321Z,18.50
2023-05-14T08:45:04.120Z,18.60
2023-05-14T08:47:31.775Z,18.50
2023-05-14T08:50:05.858Z,18.70
2023-05-14T08:52:33.656Z,18.60
2023-05-14T08:55:08.040Z,18.40
2023-05-14T08:57:36.284Z,18.00
2023-05-14T09:00:23.498Z,17.80
2023-05-14T09:02:51.638Z,17.80
2023-05-14T09:05:20.184Z,17.80
2023-05-14T09:07:47.399Z,17.70
2023-05-14T09:10:16.245Z,17.90
2023-05-14T09:12:43.329Z,17.80
2023-05-14T09:15:10.717Z,17.80
2023-05-14T09:17:39.516Z,17.90
2023-05-14T09:20:07.660Z,18.00
2023-05-14T09:22:35.832Z,18.00
2023-05-14T09:25:06.285Z,18.00
2023-05-14T09:27:34.235Z,18.10
2023-05-14T09:30:10.073Z,18.10
2023-05-14T09:32:44.160Z,18.20
2023-05-14T09:35:17.795Z,18.50
2023-05-14T09:37:50.070Z,18.50
2023-05-14T09:40:19.132Z,18.70
2023-05-14T09:42:46.948Z,18.50
2023-05-14T09:45:14.166Z,18.40
2023-05-14T09:47:41.475Z,18.50
2023-05-14T09:50:09.490Z,18.40
2023-05-14T09:52:37.375Z,18.40
2023-05-14T09:55:04.758Z,18.50
2023-05-14T09:57:31.933Z,18.60
2023-05-14T09:59:58.927Z,18.80
2023-05-14T10:02:37.730Z,18.90
2023-05-14T10:05:07.035Z,19.00
2023-05-14T10:07:44.836Z,19.20
2023-05-14T10:10:26.587Z,19.50
2023-05-14T10:12:58.631Z,19.50
2023-05-14T10:15:52.352Z,19.90
2023-05-14T10:18:24.361Z,20.30
2023-05-14T10:21:04.843Z,20.30
2023-05-14T10:23:32.068Z,20.30
2023-05-14T10:25:59.898Z,20.30
2023-05-14T10:28:27.817Z,20.20
2023-05-14T10:30:55.018Z,19.70
2023-05-14T10:33:22.104Z,19.70
2023-05-14T10:35:55.206Z,19.40
2023-05-14T10:38:36.198Z,19.20
2023-05-14T10:41:10.398Z,19.30
2023-05-14T10:43:38.652Z,19.00
2023-05-14T10:46:06.487Z,18.80
2023-05-14T10:48:34.523Z,18.80
2023-05-14T10:51:02.836Z,18.70
2023-05-14T10:53:38.156Z,18.90
2023-05-14T10:56:08.429Z,19.40
2023-05-14T10:58:41.848Z,20.00
2023-05-14T11:01:11.102Z,19.90
2023-05-14T11:03:46.512Z,19.80
2023-05-14T11:06:15.864Z,19.80
2023-05-14T11:08:44.129Z,19.60
2023-05-14T11:11:11.354Z,19.60
2023-05-14T11:13:38.866Z,19.50
2023-05-14T11:18:41.050Z,19.30
2023-05-14T11:21:08.112Z,19.00
2023-05-14T11:23:35.316Z,18.70
2023-05-14T11:26:02.570Z,18.70
2023-05-14T11:28:30.179Z,18.70
2023-05-14T11:30:57.315Z,18.70
2023-05-14T11:33:24.714Z,19.00
2023-05-14T11:35:52.116Z,19.20
2023-05-14T11:38:21.398Z,19.30
2023-05-14T11:40:59.012Z,19.50
2023-05-14T11:43:29.254Z,19.40
2023-05-14T11:45:56.930Z,19.50
2023-05-14T11:48:24.585Z,19.60
2023-05-14T11:50:54.519Z,19.40
2023-05-14T11:53:30.026Z,19.60
2023-05-14T11:56:00.179Z,20.00
2023-05-14T11:58:27.219Z,20.30
2023-05-14T12:00:56.086Z,21.00
2023-05-14T12:03:26.526Z,20.70
2023-05-14T12:06:01.344Z,20.20
2023-05-14T12:08:30.816Z,19.90
2023-05-14T12:11:01.738Z,19.60
2023-05-14T12:13:30.793Z,19.70
2023-05-14T12:16:00.488Z,19.70
2023-05-14T12:18:29.113Z,19.90
2023-05-14T12:21:01.940Z,20.20
2023-05-14T12:23:30.978Z,20.90
2023-05-14T12:26:09.782Z,21.70
2023-05-14T12:28:47.995Z,22.60
2023-05-14T12:31:16.283Z,22.90
2023-05-14T12:33:43.363Z,22.50
2023-05-14T12:36:21.319Z,21.60
2023-05-14T12:38:50.301Z,21.20
2023-05-14T12:41:18.479Z,21.10
2023-05-14T12:43:48.390Z,20.70
2023-05-14T12:46:16.515Z,20.30
2023-05-14T12:48:43.582Z,20.10
2023-05-14T12:51:10.691Z,20.00
2023-05-14T12:53:37.811Z,19.90
2023-05-14T12:56:05.092Z,19.90
2023-05-14T12:58:32.356Z,20.00
2023-05-14T13:00:59.768Z,19.90
2023-05-14T13:03:26.854Z,20.10
2023-05-14T13:05:54.761Z,19.90
2023-05-14T13:08:25.136Z,19.80
2023-05-14T13:10:53.398Z,19.70
2023-05-14T13:13:20.643Z,19.70
2023-05-14T13:15:47.965Z,19.70
2023-05-14T13:18:15.688Z,19.80
2023-05-14T13:20:43.403Z,19.90
2023-05-14T13:23:10.786Z,20.00
2023-05-14T13:25:37.819Z,20.10
2023-05-14T13:28:05.156Z,20.10
2023-05-14T13:30:32.487Z,19.80
2023-05-14T13:33:00.329Z,19.90
2023-05-14T13:35:27.430Z,20.00
2023-05-14T13:37:54.446Z,20.10
2023-05-14T13:40:21.644Z,20.10
2023-05-14T13:42:48.718Z,20.00
2023-05-14T13:45:17.317Z,20.00
2023-05-14T13:47:44.481Z,20.10
2023-05-14T13:50:11.661Z,20.40
2023-05-14T13:52:39.242Z,21.50
2023-05-14T13:55:07.029Z,22.00
2023-05-14T13:57:34.113Z,22.50
2023-05-14T14:00:01.629Z,22.20
2023-05-14T14:02:28.654Z,21.60
2023-05-14T14:04:55.756Z,21.50
2023-05-14T14:07:22.900Z,21.40
2023-05-14T14:09:49.888Z,21.50
2023-05-14T14:12:17.084Z,21.70
2023-05-14T14:14:44.148Z,22.30
2023-05-14T14:17:11.142Z,23.30
2023-05-14T14:19:39.487Z,23.00
2023-05-14T14:22:06.610Z,22.40
2023-05-14T14:24:33.750Z,22.10
2023-05-14T14:27:02.465Z,21.80
2023-05-14T14:29:31.301Z,21.60
2023-05-14T14:31:58.468Z,22.20
2023-05-14T14:34:25.689Z,22.90
2023-05-14T14:36:52.759Z,22.90
2023-05-14T14:39:19.862Z,22.30
2023-05-14T14:41:47.822Z,21.80
2023-05-14T14:44:14.925Z,22.00
2023-05-14T14:46:43.056Z,22.20
2023-05-14T14:49:10.176Z,21.90
2023-05-14T14:51:37.267Z,21.40
2023-05-14T14:54:05.880Z,20.90
2023-05-14T14:56:33.698Z,20.30
2023-05-14T14:59:01.736Z,19.80
2023-05-14T15:01:29.174Z,19.50
2023-05-14T15:03:56.356Z,19.40
2023-05-14T15:06:23.464Z,19.40
2023-05-14T15:08:50.595Z,19.40
2023-05-14T15:11:17.669Z,19.30
2023-05-14T15:13:44.857Z,19.20
2023-05-14T15:16:12.714Z,19.20
2023-05-14T15:18:39.763Z,19.10
2023-05-14T15:21:06.893Z,19.30
2023-05-14T15:23:34.096Z,19.40
2023-05-14T15:26:01.222Z,19.50
2023-05-14T15:28:28.285Z,19.50
2023-05-14T15:30:55.625Z,19.50
2023-05-14T15:33:22.739Z,19.60
2023-05-14T15:35:49.742Z,19.50
2023-05-14T15:38:16.813Z,19.70
2023-05-14T15:40:43.882Z,20.30
2023-05-14T15:43:11.018Z,20.20
2023-05-14T15:45:38.070Z,20.00
2023-05-14T15:48:05.336Z,19.90
2023-05-14T15:50:32.494Z,19.90
2023-05-14T15:53:00.830Z,20.00
2023-05-14T15:55:28.017Z,20.00
2023-05-14T15:57:55.024Z,19.90
2023-05-14T16:00:22.455Z,19.80
2023-05-14T16:02:50.021Z,19.70
2023-05-14T16:05:17.433Z,19.80
2023-05-14T16:07:44.548Z,20.00
2023-05-14T16:10:11.661Z,20.10
2023-05-14T16:12:38.694Z,20.40
2023-05-14T16:15:07.923Z,20.30
2023-05-14T16:17:35.194Z,20.50
2023-05-14T16:20:04.870Z,20.50
2023-05-14T16:22:35.365Z,20.40
2023-05-14T16:25:03.576Z,20.40
2023-05-14T16:27:31.741Z,20.30
2023-05-14T16:29:58.800Z,20.30
2023-05-14T16:32:26.052Z,20.20
2023-05-14T16:34:53.233Z,20.10
2023-05-14T16:37:20.781Z,19.90
2023-05-14T16:39:48.395Z,19.80
2023-05-14T16:42:16.104Z,19.60
2023-05-14T16:44:43.135Z,19.30
2023-05-14T16:47:10.571Z,19.20
2023-05-14T16:49:37.863Z,19.10
2023-05-14T16:52:06.195Z,19.00
2023-05-14T16:54:33.307Z,19.00
2023-05-14T16:57:00.401Z,19.00
2023-05-14T16:59:27.478Z,18.90
2023-05-14T17:01:54.538Z,18.90
2023-05-14T17:04:21.714Z,18.90
2023-05-14T17:06:48.802Z,18.80
2023-05-14T17:09:17.101Z,18.70
2023-05-14T17:11:44.189Z,18.70
2023-05-14T17:14:11.297Z,18.70
2023-05-14T17:16:40.629Z,18.70
2023-05-14T17:19:07.782Z,18.70
2023-05-14T17:21:37.251Z,18.70
2023-05-14T17:24:04.538Z,18.60
2023-05-14T17:26:32.125Z,18.60
2023-05-14T17:28:59.147Z,18.60
2023-05-14T17:31:26.291Z,18.60
2023-05-14T17:33:53.445Z,18.60
2023-05-14T17:36:20.786Z,18.50
2023-05-14T17:38:48.023Z,18.50
2023-05-14T17:41:15.023Z,18.40
2023-05-14T17:43:42.118Z,18.40
2023-05-14T17:46:09.193Z,18.40
2023-05-14T17:48:36.272Z,18.30
2023-05-14T17:51:03.316Z,18.30
2023-05-14T17:53:30.432Z,18.20
2023-05-14T17:55:57.625Z,18.10
2023-05-14T17:58:25.205Z,18.10
2023-05-14T18:00:52.349Z,17.90
2023-05-14T18:03:20.509Z,17.90
2023-05-14T18:05:47.847Z,17.80
2023-05-14T18:08:15.239Z,17.70
2023-05-14T18:10:42.505Z,17.60
2023-05-14T18:13:09.690Z,17.60
2023-05-14T18:15:37.366Z,17.50
2023-05-14T18:18:04.836Z,17.40
2023-05-14T18:20:33.434Z,17.30
2023-05-14T18:23:01.952Z,17.20
2023-05-14T18:25:29.363Z,17.10
2023-05-14T18:27:56.590Z,17.00
2023-05-14T18:30:23.626Z,16.90
2023-05-14T18:32:50.922Z,16.90
2023-05-14T18:35:18.115Z,16.80
2023-05-14T18:37:45.172Z,16.70
2023-05-14T18:40:16.318Z,16.70
2023-05-14T18:42:45.564Z,16.60
2023-05-14T18:45:12.681Z,16.60
2023-05-14T18:47:40.127Z,16.50
2023-05-14T18:50:08.450Z,16.50
2023-05-14T18:52:35.843Z,16.50
2023-05-14T18:55:03.189Z,16.40
2023-05-14T18:57:32.260Z,16.40
2023-05-14T19:00:01.420Z,16.30
2023-05-14T19:02:28.973Z,16.30
2023-05-14T19:04:56.361Z,16.20
2023-05-14T19:07:23.600Z,16.20
2023-05-14T19:09:50.981Z,16.10
2023-05-14T19:12:18.055Z,16.00
2023-05-14T19:14:45.081Z,15.80
2023-05-14T19:17:12.352Z,15.70
2023-05-14T19:19:39.747Z,15.60
2023-05-14T19:22:07.025Z,15.40
2023-05-14T19:24:34.145Z,15.30
2023-05-14T19:27:01.329Z,15.20
2023-05-14T19:29:28.375Z,15.10
2023-05-14T19:31:55.438Z,15.00
2023-05-14T19:34:22.530Z,14.90
2023-05-14T19:36:50.063Z,14.80
2023-05-14T19:39:17.122Z,14.70
2023-05-14T19:41:44.271Z,14.60
2023-05-14T19:44:11.338Z,14.50
2023-05-14T19:46:38.455Z,14.40
2023-05-14T19:49:05.558Z,14.30
2023-05-14T19:51:32.556Z,14.30
2023-05-14T19:53:59.638Z,14.20
2023-05-14T19:56:27.377Z,14.10
2023-05-14T19:58:54.772Z,14.00
2023-05-14T20:01:21.924Z,14.00
2023-05-14T20:03:48.990Z,13.90
2023-05-14T20:06:17.663Z,14.00
2023-05-14T20:08:47.606Z,14.00
2023-05-14T20:11:15.855Z,13.90
2023-05-14T20:13:42.912Z,13.80
2023-05-14T20:16:10.002Z,13.70
2023-05-14T20:18:37.164Z,13.80
2023-05-14T20:21:04.281Z,13.80
2023-05-14T20:23:32.459Z,13.70
2023-05-14T20:26:01.901Z,13.50
2023-05-14T20:28:29.092Z,13.30
2023-05-14T20:30:58.995Z,13.30
2023-05-14T20:33:27.277Z,13.40
2023-05-14T20:36:01.838Z,13.40
2023-05-14T20:38:30.148Z,13.30
2023-05-14T20:40:57.711Z,13.20
2023-05-14T20:43:26.541Z,13.00
2023-05-14T20:45:57.016Z,12.90
2023-05-14T20:48:24.044Z,12.90
2023-05-14T20:50:51.295Z,12.80
2023-05-14T20:53:19.307Z,12.80
2023-05-14T20:55:46.456Z,12.80
2023-05-14T20:58:13.483Z,12.80
2023-05-14T21:00:43.602Z,12.70
2023-05-14T21:03:10.871Z,12.70
2023-05-14T21:05:38.159Z,12.70
2023-05-14T21:08:05.415Z,12.70
2023-05-14T21:10:32.493Z,12.70
2023-05-14T21:12:59.491Z,12.70
2023-05-14T21:15:27.528Z,12.70
2023-05-14T21:17:54.804Z,12.60
2023-05-14T21:20:21.818Z,12.60
2023-05-14T21:22:48.878Z,12.60
2023-05-14T21:25:16.005Z,12.60
2023-05-14T21:27:43.050Z,12.60
2023-05-14T21:30:10.652Z,12.70
2023-05-14T21:32:37.763Z,12.60
2023-05-14T21:35:05.426Z,12.60
2023-05-14T21:37:32.871Z,12.60
2023-05-14T21:39:59.889Z,12.50
2023-05-14T21:42:27.002Z,12.50
2023-05-14T21:44:53.990Z,12.50
2023-05-14T21:47:21.339Z,12.50
2023-05-14T21:49:50.676Z,12.50
2023-05-14T21:52:17.698Z,12.50
2023-05-14T21:54:44.730Z,12.50
2023-05-14T21:57:11.803Z,12.50
2023-05-14T21:59:38.932Z,12.50
2023-05-14T22:02:07.671Z,12.50
2023-05-14T22:04:35.442Z,12.50
2023-05-14T22:07:02.787Z,12.40
2023-05-14T22:09:30.521Z,12.40
2023-05-14T22:11:58.562Z,12.40
2023-05-14T22:14:27.681Z,12.30
2023-05-14T22:16:54.907Z,12.30
2023-05-14T22:19:22.505Z,12.30
2023-05-14T22:21:49.666Z,12.30
2023-05-14T22:24:16.720Z,12.30
2023-05-14T22:26:44.145Z,12.30
2023-05-14T22:29:11.272Z,12.40
2023-05-14T22:31:38.334Z,12.40
2023-05-14T22:34:05.497Z,12.50
2023-05-14T22:36:32.584Z,12.50
2023-05-14T22:38:59.771Z,12.50
2023-05-14T22:41:26.938Z,12.50
2023-05-14T22:43:54.019Z,12.50
2023-05-14T22:46:21.282Z,12.60
2023-05-14T22:48:49.365Z,12.60
2023-05-14T22:51:16.830Z,12.60
2023-05-14T22:53:43.917Z,12.50
2023-05-14T22:56:11.062Z,12.60
2023-05-14T22:58:38.262Z,12.50
2023-05-14T23:01:05.421Z,12.30
2023-05-14T23:03:32.471Z,12.30
2023-05-14T23:05:59.604Z,12.20
2023-05-14T23:08:26.594Z,12.20
2023-05-14T23:10:54.046Z,12.10
2023-05-14T23:13:21.299Z,12.10
2023-05-14T23:15:48.966Z,12.10
2023-05-14T23:18:16.072Z,12.20
2023-05-14T23:20:43.406Z,12.30
2023-05-14T23:23:10.395Z,12.30
2023-05-14T23:25:37.540Z,12.20
2023-05-14T23:28:04.738Z,12.20
2023-05-14T23:30:31.795Z,12.10
2023-05-14T23:32:58.911Z,12.10
2023-05-14T23:35:26.397Z,12.00
2023-05-14T23:37:55.450Z,11.90
2023-05-14T23:40:22.558Z,11.90
2023-05-14T23:42:49.715Z,11.90
2023-05-14T23:45:16.950Z,12.00
2023-05-14T23:47:44.188Z,12.00
2023-05-14T23:50:11.473Z,11.90
2023-05-14T23:52:38.613Z,11.80
2023-05-14T23:55:06.566Z,11.80
2023-05-14T23:57:33.718Z,11.80
